首页
METAR-TAF:

METAR-TAF

机场 :

Beatrice Municipal Airport

Beatrice, 內布拉斯加州, 美国

纬度: 40-18N, 经度: 096-45W, 海拔: 403米

当前天气观测

该预报发布于27分钟前的08:55 UTC
风速7节,风向
温度 15°C
湿度 100%
气压 1011 hPa
能見度: 8.0公里
阴天层高于700英尺
小雨

METAR: KBIE 260855Z AUTO 35007KT 5SM -RA OVC007 15/15 A2986 RMK AO2 P0005 60005 T01500147

时间: 04:22 (09:22 UTC)


TAF: 丢失

超过4000个机场的气象观测和天气预报(METAR&TAF报告)。

可查询的气象台以黄色和红色小点在地图上表示。

将鼠标移到小点上方,可查看气象台名称。

然后点击查看天气观测和预报。

如需切换地图:点击带黑十字的绿色按钮放大地图;点击带横线的绿色按钮缩小地图;或者点击绿色箭头查看邻近地区的地图。


METAR-TAF: